createdAt,value
2022-08-25T00:00:36.090Z,48.17
2022-08-25T00:05:38.395Z,47.83
2022-08-25T00:10:40.549Z,47.67
2022-08-25T00:15:42.132Z,47.83
2022-08-25T00:20:48.792Z,48.01
2022-08-25T00:25:51.253Z,48.08
2022-08-25T00:30:52.841Z,47.69
2022-08-25T00:35:56.312Z,47.47
2022-08-25T00:41:07.027Z,48.52
2022-08-25T00:46:10.456Z,47.63
2022-08-25T00:51:16.674Z,47.42
2022-08-25T00:56:18.980Z,48.43
2022-08-25T01:01:23.529Z,47.34
2022-08-25T01:06:25.770Z,47.12
2022-08-25T01:11:27.766Z,47.43
2022-08-25T01:16:29.559Z,47.36
2022-08-25T01:21:37.426Z,47.32
2022-08-25T01:26:38.955Z,47.30
2022-08-25T01:31:41.656Z,47.67
2022-08-25T01:36:44.929Z,47.82
2022-08-25T01:42:06.172Z,47.96
2022-08-25T01:47:08.247Z,47.82
2022-08-25T01:52:16.795Z,48.48
2022-08-25T01:57:18.423Z,48.99
2022-08-25T02:02:20.085Z,48.55
2022-08-25T02:07:22.174Z,48.87
2022-08-25T02:12:23.757Z,48.62
2022-08-25T02:17:25.265Z,49.51
2022-08-25T02:22:26.722Z,48.92
2022-08-25T02:27:28.415Z,48.80
2022-08-25T02:32:29.985Z,49.55
2022-08-25T02:37:31.846Z,49.66
2022-08-25T02:42:33.617Z,50.26
2022-08-25T02:47:36.799Z,49.69
2022-08-25T02:52:39.846Z,49.67
2022-08-25T02:57:42.375Z,49.68
2022-08-25T03:02:44.570Z,49.26
2022-08-25T03:07:46.084Z,49.21
2022-08-25T03:12:47.714Z,49.44
2022-08-25T03:17:52.090Z,48.69
2022-08-25T03:22:53.585Z,48.98
2022-08-25T03:27:55.494Z,49.24
2022-08-25T03:32:57.039Z,49.82
2022-08-25T03:37:59.968Z,49.43
2022-08-25T03:43:01.593Z,49.84
2022-08-25T03:48:03.263Z,49.93
2022-08-25T03:53:04.867Z,49.88
2022-08-25T03:58:06.573Z,50.04
2022-08-25T04:03:08.216Z,50.52
2022-08-25T04:08:09.953Z,50.94
2022-08-25T04:13:12.176Z,51.58
2022-08-25T04:18:14.030Z,51.25
2022-08-25T04:23:15.503Z,51.06
2022-08-25T04:28:16.978Z,52.07
2022-08-25T04:33:18.435Z,54.26
2022-08-25T04:38:19.887Z,52.67
2022-08-25T04:43:21.375Z,54.00
2022-08-25T04:48:23.555Z,55.17
2022-08-25T04:53:25.078Z,54.80
2022-08-25T04:58:27.441Z,55.12
2022-08-25T05:03:28.992Z,55.05
2022-08-25T05:08:31.267Z,55.60
2022-08-25T05:13:32.951Z,54.41
2022-08-25T05:18:35.326Z,54.75
2022-08-25T05:23:37.675Z,55.09
2022-08-25T05:28:43.594Z,55.07
2022-08-25T05:33:45.185Z,55.69
2022-08-25T05:38:47.439Z,55.73
2022-08-25T05:43:49.748Z,55.72
2022-08-25T05:48:51.403Z,55.77
2022-08-25T05:53:53.035Z,56.53
2022-08-25T05:58:54.590Z,56.88
2022-08-25T06:03:56.174Z,56.72
2022-08-25T06:08:57.635Z,57.22
2022-08-25T06:13:59.191Z,56.60
2022-08-25T06:19:01.128Z,56.36
2022-08-25T06:24:02.874Z,56.61
2022-08-25T06:29:04.881Z,56.66
2022-08-25T06:34:06.410Z,56.38
2022-08-25T06:39:10.484Z,56.60
2022-08-25T06:44:12.667Z,55.76
2022-08-25T06:49:14.294Z,54.57
2022-08-25T06:54:15.947Z,53.92
2022-08-25T06:59:17.928Z,54.19
2022-08-25T07:04:19.943Z,53.92
2022-08-25T07:09:21.681Z,52.68
2022-08-25T07:14:23.430Z,52.60
2022-08-25T07:19:25.044Z,53.73
2022-08-25T07:24:26.551Z,53.15
2022-08-25T07:29:32.890Z,52.00
2022-08-25T07:34:53.365Z,51.06
2022-08-25T07:39:55.455Z,50.64
2022-08-25T07:44:58.590Z,50.05
2022-08-25T07:50:00.074Z,50.19
2022-08-25T07:55:02.973Z,49.66
2022-08-25T08:00:06.985Z,49.65
2022-08-25T08:05:14.610Z,49.24
2022-08-25T08:15:37.894Z,49.50
2022-08-25T08:20:42.683Z,48.34
2022-08-25T08:25:45.127Z,49.15
2022-08-25T08:30:53.185Z,48.01
2022-08-25T08:36:07.114Z,48.08
2022-08-25T08:42:10.841Z,48.22
2022-08-25T08:47:19.740Z,46.25
2022-08-25T08:52:50.055Z,45.98
2022-08-25T08:57:53.323Z,45.75
2022-08-25T09:03:05.808Z,44.81
2022-08-25T09:08:12.387Z,44.35
2022-08-25T09:13:26.102Z,44.15
2022-08-25T09:18:52.674Z,43.95
2022-08-25T09:24:02.943Z,42.99
2022-08-25T09:29:16.617Z,42.77
2022-08-25T09:34:23.318Z,42.58
2022-08-25T09:39:25.017Z,42.64
2022-08-25T09:44:31.887Z,42.39
2022-08-25T09:49:43.453Z,42.63
2022-08-25T09:54:47.002Z,41.45
2022-08-25T09:59:57.222Z,42.14
2022-08-25T10:04:59.888Z,41.73
2022-08-25T10:10:07.565Z,40.93
2022-08-25T10:15:29.877Z,40.44
2022-08-25T10:20:35.179Z,40.56
2022-08-25T10:25:43.383Z,39.16
2022-08-25T10:31:09.617Z,39.13
2022-08-25T10:36:17.498Z,38.72
2022-08-25T10:41:53.869Z,39.21
2022-08-25T10:47:48.254Z,39.34
2022-08-25T10:53:23.064Z,38.67
2022-08-25T10:58:43.589Z,38.39
2022-08-25T11:03:52.007Z,37.06
2022-08-25T11:08:59.319Z,36.99
2022-08-25T11:14:11.130Z,36.07
2022-08-25T11:19:32.751Z,36.21
2022-08-25T11:24:46.410Z,36.72
2022-08-25T11:29:58.990Z,35.47
2022-08-25T11:35:05.478Z,34.85
2022-08-25T11:40:34.412Z,35.39
2022-08-25T11:46:01.120Z,35.47
2022-08-25T11:51:10.263Z,34.11
2022-08-25T11:56:31.993Z,35.75
2022-08-25T12:01:40.292Z,35.22
2022-08-25T12:07:06.898Z,35.06
2022-08-25T12:12:29.846Z,34.54
2022-08-25T12:17:39.462Z,34.28
2022-08-25T12:22:51.316Z,33.41
2022-08-25T12:28:09.159Z,32.56
2022-08-25T12:33:18.242Z,33.06
2022-08-25T12:38:43.272Z,33.48
2022-08-25T12:43:48.554Z,32.34
2022-08-25T12:49:12.304Z,29.97
2022-08-25T12:54:28.751Z,29.84
2022-08-25T12:59:44.670Z,29.51
2022-08-25T13:05:05.577Z,29.64
2022-08-25T13:10:37.814Z,30.37
2022-08-25T13:15:48.690Z,28.58
2022-08-25T13:21:16.868Z,28.23
2022-08-25T13:26:31.674Z,29.49
2022-08-25T13:31:38.335Z,27.93
2022-08-25T13:37:06.642Z,25.97
2022-08-25T13:42:15.640Z,27.59
2022-08-25T13:47:45.013Z,27.97
2022-08-25T13:52:56.796Z,27.79
2022-08-25T13:57:59.562Z,27.96
2022-08-25T14:03:08.710Z,27.78
2022-08-25T14:08:32.946Z,28.53
2022-08-25T14:13:34.973Z,27.90
2022-08-25T14:18:36.886Z,28.47
2022-08-25T14:23:39.550Z,27.56
2022-08-25T14:28:41.041Z,26.95
2022-08-25T14:33:43.797Z,27.09
2022-08-25T14:38:54.915Z,27.47
2022-08-25T14:43:56.793Z,26.46
2022-08-25T14:49:01.379Z,26.84
2022-08-25T14:54:09.163Z,27.05
2022-08-25T14:59:10.674Z,26.52
2022-08-25T15:04:20.256Z,27.03
2022-08-25T15:09:22.063Z,27.87
2022-08-25T15:14:29.206Z,28.20
2022-08-25T15:19:35.168Z,28.31
2022-08-25T15:24:37.886Z,27.94
2022-08-25T15:29:42.561Z,27.92
2022-08-25T15:34:44.187Z,28.65
2022-08-25T15:39:46.582Z,27.99
2022-08-25T15:44:53.058Z,29.74
2022-08-25T15:50:08.358Z,29.44
2022-08-25T15:55:10.965Z,28.01
2022-08-25T16:00:16.729Z,27.84
2022-08-25T16:05:22.495Z,28.33
2022-08-25T16:10:27.412Z,28.58
2022-08-25T16:15:29.200Z,28.33
2022-08-25T16:20:32.979Z,28.14
2022-08-25T16:25:39.362Z,28.14
2022-08-25T16:30:45.966Z,28.13
2022-08-25T16:36:17.602Z,27.56
2022-08-25T16:41:25.547Z,28.44
2022-08-25T16:46:27.457Z,29.36
2022-08-25T16:51:29.755Z,29.70
2022-08-25T16:56:37.051Z,30.31
2022-08-25T17:01:40.963Z,29.54
2022-08-25T17:06:51.863Z,29.65
2022-08-25T17:11:56.652Z,30.42
2022-08-25T17:16:58.282Z,31.44
2022-08-25T17:21:59.830Z,30.96
2022-08-25T17:27:02.041Z,31.59
2022-08-25T17:32:04.583Z,32.58
2022-08-25T17:37:06.677Z,32.16
2022-08-25T17:42:08.182Z,33.61
2022-08-25T17:47:10.787Z,34.92
2022-08-25T17:52:13.062Z,35.90
2022-08-25T17:57:16.046Z,38.31
2022-08-25T18:02:17.526Z,38.22
2022-08-25T18:07:18.973Z,38.64
2022-08-25T18:12:20.470Z,39.51
2022-08-25T18:17:23.016Z,39.19
2022-08-25T18:22:24.543Z,37.73
2022-08-25T18:27:27.068Z,38.01
2022-08-25T18:32:29.320Z,39.28
2022-08-25T18:37:49.159Z,41.81
2022-08-25T18:42:54.070Z,42.62
2022-08-25T18:47:57.456Z,42.90
2022-08-25T18:53:00.321Z,42.36
2022-08-25T18:58:02.609Z,42.04
2022-08-25T19:03:05.182Z,42.26
2022-08-25T19:08:09.150Z,42.28
2022-08-25T19:13:11.390Z,42.69
2022-08-25T19:18:14.228Z,43.66
2022-08-25T19:23:19.332Z,43.24
2022-08-25T19:28:21.625Z,42.93
2022-08-25T19:33:42.180Z,43.59
2022-08-25T19:38:44.817Z,44.42
2022-08-25T19:43:55.534Z,45.37
2022-08-25T19:48:58.410Z,46.21
2022-08-25T19:54:02.755Z,47.67
2022-08-25T19:59:04.626Z,49.49
2022-08-25T20:04:06.388Z,49.86
2022-08-25T20:09:09.046Z,50.44
2022-08-25T20:14:23.291Z,50.77
2022-08-25T20:19:24.773Z,51.75
2022-08-25T20:24:45.091Z,51.14
2022-08-25T20:29:48.432Z,51.33
2022-08-25T20:34:53.387Z,49.43
2022-08-25T20:39:58.055Z,48.97
2022-08-25T20:45:00.198Z,51.76
2022-08-25T20:50:06.724Z,53.55
2022-08-25T20:55:09.755Z,54.88
2022-08-25T21:00:12.692Z,54.33
2022-08-25T21:05:14.239Z,53.89
2022-08-25T21:10:16.094Z,53.87
2022-08-25T21:15:18.364Z,53.68
2022-08-25T21:20:21.376Z,54.65
2022-08-25T21:25:22.971Z,53.70
2022-08-25T21:30:24.492Z,54.16
2022-08-25T21:35:29.084Z,54.19
2022-08-25T21:40:35.883Z,55.58
2022-08-25T21:45:43.245Z,57.46
2022-08-25T21:50:48.371Z,55.98
2022-08-25T21:55:50.206Z,56.07
2022-08-25T22:00:51.711Z,56.03
2022-08-25T22:05:54.908Z,57.80
2022-08-25T22:10:56.747Z,56.98
2022-08-25T22:15:58.567Z,47.62
2022-08-25T22:21:00.019Z,47.01
2022-08-25T22:26:09.459Z,48.55
2022-08-25T22:31:12.221Z,49.96
2022-08-25T22:36:17.319Z,51.97
2022-08-25T22:41:21.576Z,53.47
2022-08-25T22:46:24.688Z,55.30
2022-08-25T22:51:30.332Z,58.04
2022-08-25T22:56:35.503Z,60.59
2022-08-25T23:01:39.615Z,64.15
2022-08-25T23:06:41.613Z,66.03
2022-08-25T23:11:43.963Z,67.34
2022-08-25T23:16:45.474Z,68.21
2022-08-25T23:22:05.495Z,71.16
2022-08-25T23:27:08.914Z,72.20
2022-08-25T23:32:14.729Z,72.90
2022-08-25T23:37:18.752Z,73.57
2022-08-25T23:42:21.374Z,74.13
2022-08-25T23:47:22.919Z,75.30
2022-08-25T23:52:24.605Z,76.97
2022-08-25T23:57:26.413Z,77.62
